createdAt,value
2023-04-19T00:01:45.125Z,9.83
2023-04-19T00:05:48.972Z,9.79
2023-04-19T00:09:52.034Z,9.73
2023-04-19T00:13:55.124Z,9.73
2023-04-19T00:17:59.885Z,9.67
2023-04-19T00:22:03.074Z,9.63
2023-04-19T00:26:06.190Z,9.60
2023-04-19T00:30:10.021Z,9.59
2023-04-19T00:34:14.834Z,9.59
2023-04-19T00:38:18.356Z,9.55
2023-04-19T00:42:21.597Z,9.52
2023-04-19T00:46:25.656Z,9.52
2023-04-19T00:50:30.630Z,9.48
2023-04-19T00:54:34.452Z,9.44
2023-04-19T00:58:39.811Z,9.42
2023-04-19T01:02:43.474Z,9.38
2023-04-19T01:06:49.241Z,9.34
2023-04-19T01:10:52.337Z,9.34
2023-04-19T01:14:55.364Z,9.30
2023-04-19T01:18:58.429Z,9.28
2023-04-19T01:23:03.902Z,9.25
2023-04-19T01:27:07.012Z,9.23
2023-04-19T01:31:10.161Z,9.20
2023-04-19T01:35:13.406Z,9.18
2023-04-19T01:39:17.946Z,9.18
2023-04-19T01:43:20.983Z,9.14
2023-04-19T01:47:25.128Z,9.08
2023-04-19T01:51:28.205Z,9.06
2023-04-19T01:55:33.114Z,9.05
2023-04-19T01:59:36.282Z,9.04
2023-04-19T02:03:39.435Z,9.03
2023-04-19T02:07:42.708Z,9.03
2023-04-19T02:11:47.100Z,9.02
2023-04-19T02:15:50.549Z,9.06
2023-04-19T02:19:54.141Z,9.05
2023-04-19T02:23:57.187Z,9.07
2023-04-19T02:28:01.604Z,9.09
2023-04-19T02:32:06.203Z,9.09
2023-04-19T02:36:10.135Z,9.09
2023-04-19T02:40:13.351Z,9.08
2023-04-19T02:44:18.348Z,9.10
2023-04-19T02:48:21.592Z,9.12
2023-04-19T02:52:24.891Z,9.11
2023-04-19T02:56:27.989Z,9.13
2023-04-19T03:00:32.886Z,9.11
2023-04-19T03:04:43.617Z,9.12
2023-04-19T03:08:47.072Z,9.11
2023-04-19T03:12:50.905Z,9.14
2023-04-19T03:16:55.833Z,9.16
2023-04-19T03:20:59.154Z,9.14
2023-04-19T03:25:07.345Z,9.14
2023-04-19T03:29:12.150Z,9.15
2023-04-19T03:33:20.477Z,9.15
2023-04-19T03:37:24.178Z,9.15
2023-04-19T03:41:28.792Z,9.14
2023-04-19T03:45:49.819Z,9.14
2023-04-19T03:49:55.067Z,9.12
2023-04-19T03:53:58.436Z,9.14
2023-04-19T03:58:01.901Z,9.12
2023-04-19T04:02:16.907Z,9.12
2023-04-19T04:06:21.573Z,9.08
2023-04-19T04:10:25.167Z,9.08
2023-04-19T04:14:28.564Z,9.04
2023-04-19T04:18:32.195Z,9.02
2023-04-19T04:22:44.159Z,9.00
2023-04-19T04:26:51.561Z,9.01
2023-04-19T04:30:59.263Z,9.00
2023-04-19T04:35:07.042Z,9.00
2023-04-19T04:39:20.077Z,8.98
2023-04-19T04:43:24.457Z,8.95
2023-04-19T04:47:32.409Z,8.95
2023-04-19T04:51:39.034Z,8.90
2023-04-19T04:55:43.520Z,8.87
2023-04-19T04:59:49.139Z,8.85
2023-04-19T05:03:55.148Z,8.86
2023-04-19T05:07:58.632Z,8.86
2023-04-19T05:12:03.491Z,8.89
2023-04-19T05:16:07.609Z,8.89
2023-04-19T05:20:12.181Z,8.91
2023-04-19T05:24:15.634Z,8.91
2023-04-19T05:28:21.287Z,8.95
2023-04-19T05:32:47.431Z,8.97
2023-04-19T05:36:51.797Z,8.95
2023-04-19T05:40:55.612Z,8.91
2023-04-19T05:45:00.017Z,8.93
2023-04-19T05:49:04.343Z,8.91
2023-04-19T05:53:26.433Z,8.93
2023-04-19T05:57:30.146Z,8.98
2023-04-19T06:01:35.283Z,9.00
2023-04-19T06:05:40.547Z,9.04
2023-04-19T06:09:43.666Z,9.07
2023-04-19T06:13:47.431Z,9.08
2023-04-19T06:17:51.961Z,9.09
2023-04-19T06:21:55.400Z,9.09
2023-04-19T06:25:58.443Z,9.11
2023-04-19T06:30:01.714Z,9.13
2023-04-19T06:34:06.166Z,9.13
2023-04-19T06:38:09.206Z,9.15
2023-04-19T06:42:12.535Z,9.21
2023-04-19T06:46:15.915Z,9.23
2023-04-19T06:50:20.824Z,9.24
2023-04-19T06:54:23.865Z,9.24
2023-04-19T06:58:26.958Z,9.22
2023-04-19T07:02:30.103Z,9.21
2023-04-19T07:06:34.666Z,9.16
2023-04-19T07:10:37.755Z,9.13
2023-04-19T07:14:40.801Z,9.11
2023-04-19T07:18:44.495Z,9.08
2023-04-19T07:22:49.110Z,9.03
2023-04-19T07:26:52.084Z,8.99
2023-04-19T07:30:55.300Z,9.00
2023-04-19T07:34:58.446Z,8.98
2023-04-19T07:39:02.847Z,8.97
2023-04-19T07:43:06.750Z,8.98
2023-04-19T07:47:09.811Z,9.02
2023-04-19T07:51:13.585Z,9.02
2023-04-19T07:55:17.968Z,9.03
2023-04-19T07:59:21.041Z,9.07
2023-04-19T08:03:24.248Z,9.05
2023-04-19T08:07:27.441Z,9.07
2023-04-19T08:11:32.101Z,9.08
2023-04-19T08:19:41.682Z,9.10
2023-04-19T08:23:48.204Z,9.14
2023-04-19T08:27:52.991Z,9.19
2023-04-19T08:31:56.333Z,9.23
2023-04-19T08:35:59.406Z,9.30
2023-04-19T08:40:03.870Z,9.34
2023-04-19T08:44:08.755Z,9.37
2023-04-19T08:48:12.670Z,9.37
2023-04-19T08:52:16.693Z,9.39
2023-04-19T08:56:34.490Z,9.43
2023-04-19T09:00:41.368Z,9.47
2023-04-19T09:04:44.724Z,9.49
2023-04-19T09:08:47.987Z,9.47
2023-04-19T09:13:06.122Z,9.39
2023-04-19T09:17:18.373Z,9.36
2023-04-19T09:21:29.451Z,9.30
2023-04-19T09:25:47.163Z,9.25
2023-04-19T09:29:56.336Z,9.18
2023-04-19T09:34:14.219Z,9.18
2023-04-19T09:38:17.824Z,9.08
2023-04-19T09:42:42.384Z,9.02
2023-04-19T09:46:45.641Z,8.98
2023-04-19T09:51:02.377Z,8.97
2023-04-19T09:55:22.142Z,9.00
2023-04-19T09:59:28.852Z,9.06
2023-04-19T10:03:32.778Z,9.14
2023-04-19T10:07:38.328Z,9.21
2023-04-19T10:11:42.971Z,9.28
2023-04-19T10:15:52.685Z,9.31
2023-04-19T10:20:07.748Z,9.44
2023-04-19T10:24:14.763Z,9.52
2023-04-19T10:28:18.052Z,9.57
2023-04-19T10:32:21.174Z,9.61
2023-04-19T10:36:28.288Z,9.69
2023-04-19T10:40:59.110Z,9.75
2023-04-19T10:45:33.268Z,9.77
2023-04-19T10:49:46.143Z,9.84
2023-04-19T10:53:59.631Z,9.94
2023-04-19T10:58:05.716Z,10.12
2023-04-19T11:02:29.498Z,10.21
2023-04-19T11:06:33.200Z,10.36
2023-04-19T11:10:36.624Z,10.39
2023-04-19T11:14:43.051Z,10.45
2023-04-19T11:18:46.120Z,10.47
2023-04-19T11:22:49.289Z,10.63
2023-04-19T11:26:54.819Z,10.80
2023-04-19T11:31:00.197Z,10.95
2023-04-19T11:35:08.441Z,10.98
2023-04-19T11:39:12.130Z,11.06
2023-04-19T11:43:15.327Z,11.00
2023-04-19T11:47:20.888Z,10.92
2023-04-19T11:51:23.955Z,10.86
2023-04-19T11:55:27.398Z,10.73
2023-04-19T11:59:31.096Z,10.61
2023-04-19T12:03:36.896Z,10.57
2023-04-19T12:08:06.331Z,10.56
2023-04-19T12:12:09.406Z,10.51
2023-04-19T12:16:13.296Z,10.50
2023-04-19T12:20:31.643Z,10.52
2023-04-19T12:24:34.761Z,10.55
2023-04-19T12:28:37.835Z,10.57
2023-04-19T12:32:41.043Z,10.67
2023-04-19T12:36:45.488Z,10.68
2023-04-19T12:40:48.836Z,10.70
2023-04-19T12:44:51.901Z,10.75
2023-04-19T12:48:55.090Z,10.87
2023-04-19T12:52:59.589Z,10.96
2023-04-19T12:57:03.548Z,11.04
2023-04-19T13:01:07.324Z,11.08
2023-04-19T13:05:12.920Z,11.09
2023-04-19T13:09:17.825Z,11.12
2023-04-19T13:13:20.958Z,11.15
2023-04-19T13:17:23.991Z,11.17
2023-04-19T13:21:27.929Z,11.17
2023-04-19T13:25:32.474Z,11.09
2023-04-19T13:29:35.531Z,11.01
2023-04-19T13:33:38.598Z,10.97
2023-04-19T13:37:44.272Z,10.89
2023-04-19T13:41:48.958Z,10.82
2023-04-19T13:45:52.099Z,10.74
2023-04-19T13:49:55.110Z,10.81
2023-04-19T13:53:58.120Z,10.92
2023-04-19T13:58:02.522Z,11.03
2023-04-19T14:02:05.780Z,11.11
2023-04-19T14:06:09.016Z,11.25
2023-04-19T14:10:12.438Z,11.25
2023-04-19T14:14:17.454Z,11.21
2023-04-19T14:18:20.734Z,11.17
2023-04-19T14:22:23.753Z,11.18
2023-04-19T14:26:27.728Z,11.16
2023-04-19T14:30:32.283Z,11.02
2023-04-19T14:34:35.304Z,10.84
2023-04-19T14:38:38.266Z,10.72
2023-04-19T14:42:41.668Z,10.67
2023-04-19T14:46:46.564Z,10.70
2023-04-19T14:50:49.872Z,10.70
2023-04-19T14:54:52.851Z,10.60
2023-04-19T14:58:55.989Z,10.55
2023-04-19T15:03:01.296Z,10.57
2023-04-19T15:07:04.862Z,10.56
2023-04-19T15:11:07.889Z,10.52
2023-04-19T15:15:11.697Z,10.53
2023-04-19T15:19:16.862Z,10.51
2023-04-19T15:23:22.204Z,10.51
2023-04-19T15:27:25.295Z,10.53
2023-04-19T15:31:28.304Z,10.58
2023-04-19T15:35:33.398Z,10.60
2023-04-19T15:39:36.415Z,10.63
2023-04-19T15:43:39.774Z,10.69
2023-04-19T15:47:42.913Z,10.72
2023-04-19T15:51:47.368Z,10.76
2023-04-19T15:55:50.514Z,10.80
2023-04-19T15:59:53.572Z,10.76
2023-04-19T16:03:56.749Z,10.74
2023-04-19T16:08:04.961Z,10.72
2023-04-19T16:12:08.302Z,10.69
2023-04-19T16:16:11.350Z,10.68
2023-04-19T16:20:14.494Z,10.61
2023-04-19T16:24:19.030Z,10.56
2023-04-19T16:28:22.167Z,10.64
2023-04-19T16:32:25.281Z,10.71
2023-04-19T16:36:28.537Z,10.80
2023-04-19T16:40:33.204Z,10.81
2023-04-19T16:44:36.690Z,10.75
2023-04-19T16:48:39.812Z,10.71
2023-04-19T16:52:42.863Z,10.63
2023-04-19T16:56:47.361Z,10.53
2023-04-19T17:00:50.459Z,10.43
2023-04-19T17:04:53.834Z,10.39
2023-04-19T17:08:57.046Z,10.35
2023-04-19T17:13:01.562Z,10.31
2023-04-19T17:17:04.704Z,10.25
2023-04-19T17:21:07.729Z,10.23
2023-04-19T17:25:11.074Z,10.16
2023-04-19T17:29:15.777Z,10.14
2023-04-19T17:33:18.893Z,10.17
2023-04-19T17:37:22.128Z,10.16
2023-04-19T17:41:25.234Z,10.16
2023-04-19T17:45:29.924Z,10.16
2023-04-19T17:49:32.995Z,10.17
2023-04-19T17:53:36.135Z,10.17
2023-04-19T17:57:39.174Z,10.16
2023-04-19T18:01:43.602Z,10.10
2023-04-19T18:05:46.694Z,10.10
2023-04-19T18:09:49.699Z,10.14
2023-04-19T18:13:52.870Z,10.14
2023-04-19T18:17:57.339Z,10.08
2023-04-19T18:22:01.417Z,9.96
2023-04-19T18:26:05.103Z,9.86
2023-04-19T18:30:09.181Z,9.86
2023-04-19T18:34:13.894Z,9.86
2023-04-19T18:38:16.974Z,9.96
2023-04-19T18:42:20.173Z,9.92
2023-04-19T18:46:24.247Z,9.85
2023-04-19T18:50:28.814Z,9.81
2023-04-19T18:54:31.816Z,9.77
2023-04-19T18:58:34.835Z,9.75
2023-04-19T19:02:40.450Z,9.73
2023-04-19T19:06:45.572Z,9.69
2023-04-19T19:11:13.791Z,9.68
2023-04-19T19:15:11.962Z,9.64
2023-04-19T19:19:15.303Z,9.61
2023-04-19T19:23:20.491Z,9.54
2023-04-19T19:27:29.314Z,9.53
2023-04-19T19:31:32.326Z,9.47
2023-04-19T19:35:35.982Z,9.41
2023-04-19T19:39:40.605Z,9.36
2023-04-19T19:43:45.201Z,9.31
2023-04-19T19:47:49.960Z,9.25
2023-04-19T19:51:58.483Z,9.23
2023-04-19T19:56:04.292Z,9.16
2023-04-19T20:04:17.260Z,8.99
2023-04-19T20:08:20.413Z,8.89
2023-04-19T20:12:24.862Z,8.80
2023-04-19T20:16:29.090Z,8.74
2023-04-19T20:20:32.250Z,8.66
2023-04-19T20:24:35.260Z,8.59
2023-04-19T20:28:39.635Z,8.50
2023-04-19T20:32:43.307Z,8.42
2023-04-19T20:36:47.271Z,8.35
2023-04-19T20:40:50.702Z,8.31
2023-04-19T20:44:55.106Z,8.29
2023-04-19T20:48:58.217Z,8.23
2023-04-19T20:53:01.383Z,8.17
2023-04-19T20:57:04.861Z,8.08
2023-04-19T21:01:10.084Z,8.04
2023-04-19T21:05:13.212Z,7.95
2023-04-19T21:09:16.495Z,7.92
2023-04-19T21:13:19.721Z,7.88
2023-04-19T21:17:24.401Z,7.84
2023-04-19T21:21:28.065Z,7.84
2023-04-19T21:25:31.192Z,7.76
2023-04-19T21:29:34.614Z,7.75
2023-04-19T21:33:39.080Z,7.74
2023-04-19T21:37:42.129Z,7.73
2023-04-19T21:41:45.186Z,7.76
2023-04-19T21:45:48.222Z,7.70
2023-04-19T21:49:53.348Z,7.68
2023-04-19T21:53:56.461Z,7.69
2023-04-19T21:57:59.763Z,7.68
2023-04-19T22:02:03.159Z,7.67
2023-04-19T22:06:08.546Z,7.65
2023-04-19T22:10:13.766Z,7.58
2023-04-19T22:14:17.646Z,7.53
2023-04-19T22:18:20.893Z,7.49
2023-04-19T22:22:25.510Z,7.45
2023-04-19T22:26:29.352Z,7.45
2023-04-19T22:30:32.432Z,7.41
2023-04-19T22:34:36.531Z,7.37
2023-04-19T22:38:40.962Z,7.32
2023-04-19T22:42:44.069Z,7.31
2023-04-19T22:46:47.340Z,7.32
2023-04-19T22:50:52.528Z,7.26
2023-04-19T22:54:57.025Z,7.28
2023-04-19T22:59:00.095Z,7.31
2023-04-19T23:03:03.651Z,7.25
2023-04-19T23:07:07.075Z,7.24
2023-04-19T23:11:11.492Z,7.22
2023-04-19T23:15:14.837Z,7.23
2023-04-19T23:19:18.201Z,7.22
2023-04-19T23:23:21.504Z,7.19
2023-04-19T23:27:26.598Z,7.19
2023-04-19T23:31:29.714Z,7.23
2023-04-19T23:35:32.816Z,7.18
2023-04-19T23:39:35.926Z,7.15
2023-04-19T23:43:40.499Z,7.10
2023-04-19T23:47:43.583Z,7.08
2023-04-19T23:51:48.889Z,7.07
2023-04-19T23:55:51.970Z,7.01
2023-04-19T23:59:56.454Z,7.03
